Time;durP1;ratioP1;P1;durP2;ratioP2;P2;SDS_P1;SDS_P2;PMS_P1;PMS_P2;Temp;Humidity;BMP_temperature;BMP_pressure;BME280_temperature;BME280_humidity;BME280_pressure;Samples;Min_cycle;Max_cycle;Signal;HPM_P1;HPM_P2
2023/12/15 00:00:43;;;;;;;0.10;0.10;;;;;;;;;;4985813;28;20061;-70
2023/12/15 00:03:40;;;;;;;0.10;0.10;;;;;;;;;;4988289;28;20122;-70
2023/12/15 00:09:54;;;;;;;0.10;0.10;;;;;;;;;;4987693;28;20041;-71
2023/12/15 00:12:33;;;;;;;0.10;0.10;;;;;;;;;;5068523;28;20028;-73
2023/12/15 00:15:22;;;;;;;0.10;0.10;;;;;;;;;;5068600;28;20497;-71
2023/12/15 00:17:56;;;;;;;0.10;0.10;;;;;;;;;;5070297;28;20510;-71
2023/12/15 00:27:30;;;;;;;0.10;0.10;;;;;;;;;;5073651;28;20142;-71
2023/12/15 01:04:28;;;;;;;0.10;0.10;;;;;;;;;;5047364;28;20462;-71
2023/12/15 01:07:35;;;;;;;0.43;0.43;;;;;;;;;;5053171;28;20391;-71
2023/12/15 01:10:01;;;;;;;0.70;0.70;;;;;;;;;;5052861;28;20106;-71
2023/12/15 01:12:58;;;;;;;1.23;1.23;;;;;;;;;;5052982;28;20165;-71
2023/12/15 01:15:26;;;;;;;0.40;0.40;;;;;;;;;;5052919;28;20037;-70
2023/12/15 01:17:59;;;;;;;0.43;0.43;;;;;;;;;;5052831;28;20039;-70
2023/12/15 01:20:31;;;;;;;0.20;0.20;;;;;;;;;;5052765;28;20029;-70
2023/12/15 01:23:26;;;;;;;1.30;1.15;;;;;;;;;;5051003;28;20048;-70
2023/12/15 01:25:52;;;;;;;0.10;0.10;;;;;;;;;;5054414;28;20107;-70
2023/12/15 01:28:18;;;;;;;1.02;0.98;;;;;;;;;;5056600;28;20071;-71
2023/12/15 01:30:43;;;;;;;1.20;1.20;;;;;;;;;;5056189;28;20049;-70
2023/12/15 01:33:09;;;;;;;0.45;0.45;;;;;;;;;;5056435;28;20095;-70
2023/12/15 01:36:00;;;;;;;0.30;0.30;;;;;;;;;;5056130;28;20090;-71
2023/12/15 01:38:51;;;;;;;0.75;0.75;;;;;;;;;;5056374;28;20040;-70
2023/12/15 01:41:42;;;;;;;0.10;0.10;;;;;;;;;;5056260;28;20043;-70
2023/12/15 01:44:33;;;;;;;1.40;1.30;;;;;;;;;;5056316;28;20040;-71
2023/12/15 01:47:25;;;;;;;0.20;0.20;;;;;;;;;;5055927;28;20466;-70
2023/12/15 01:50:15;;;;;;;1.52;1.42;;;;;;;;;;5056601;28;20416;-71
2023/12/15 01:53:06;;;;;;;1.60;1.02;;;;;;;;;;5058750;28;20060;-71
2023/12/15 01:55:57;;;;;;;0.10;0.10;;;;;;;;;;5058270;28;20086;-71
2023/12/15 01:58:48;;;;;;;0.20;0.20;;;;;;;;;;5056549;28;20044;-71
2023/12/15 02:01:39;;;;;;;0.65;0.30;;;;;;;;;;5055972;28;20506;-71
2023/12/15 02:04:30;;;;;;;0.10;0.10;;;;;;;;;;5071806;28;20700;-70
2023/12/15 02:07:21;;;;;;;0.10;0.10;;;;;;;;;;5072068;28;20144;-70
2023/12/15 02:10:12;;;;;;;0.60;0.55;;;;;;;;;;5071840;28;20054;-70
2023/12/15 02:13:03;;;;;;;0.10;0.10;;;;;;;;;;5072025;28;20125;-71
2023/12/15 02:15:54;;;;;;;0.10;0.10;;;;;;;;;;5071736;28;20067;-70
2023/12/15 02:18:45;;;;;;;0.20;0.20;;;;;;;;;;5071847;28;20063;-71
2023/12/15 02:21:36;;;;;;;0.10;0.10;;;;;;;;;;5071581;28;20068;-71
2023/12/15 02:24:27;;;;;;;0.28;0.28;;;;;;;;;;5071854;28;20060;-71
2023/12/15 02:27:18;;;;;;;0.20;0.20;;;;;;;;;;5071551;28;20075;-70
2023/12/15 02:30:09;;;;;;;0.10;0.10;;;;;;;;;;5071604;28;20063;-70
2023/12/15 02:33:00;;;;;;;0.10;0.10;;;;;;;;;;5071048;28;20067;-71
2023/12/15 02:35:51;;;;;;;0.10;0.10;;;;;;;;;;5070827;28;20076;-70
2023/12/15 02:38:42;;;;;;;0.20;0.20;;;;;;;;;;5071542;28;20063;-70
2023/12/15 02:41:33;;;;;;;0.20;0.20;;;;;;;;;;5071080;28;20071;-71
2023/12/15 02:44:24;;;;;;;0.20;0.20;;;;;;;;;;5071070;28;20071;-70
2023/12/15 02:47:15;;;;;;;0.10;0.10;;;;;;;;;;5071042;28;20114;-70
2023/12/15 02:50:06;;;;;;;0.10;0.10;;;;;;;;;;5070628;28;20075;-70
2023/12/15 02:52:57;;;;;;;0.10;0.10;;;;;;;;;;5070889;28;20067;-70
2023/12/15 02:55:49;;;;;;;0.20;0.20;;;;;;;;;;5070768;28;20064;-72
2023/12/15 02:58:39;;;;;;;0.10;0.10;;;;;;;;;;5070781;28;20502;-72
2023/12/15 09:06:41;;;;;;;0.10;0.10;;;;;;;;;;5088951;28;20093;-73
2023/12/15 09:09:07;;;;;;;0.10;0.10;;;;;;;;;;5090765;28;20387;-73
2023/12/15 09:11:33;;;;;;;0.20;0.20;;;;;;;;;;5091063;28;20386;-72
2023/12/15 09:14:01;;;;;;;0.17;0.17;;;;;;;;;;5090737;28;20036;-72
2023/12/15 09:16:26;;;;;;;0.30;0.30;;;;;;;;;;5090780;28;20375;-73
2023/12/15 09:18:52;;;;;;;1.27;0.47;;;;;;;;;;5091126;28;20040;-72
2023/12/15 09:21:18;;;;;;;0.20;0.20;;;;;;;;;;5090198;28;20024;-72
2023/12/15 09:23:44;;;;;;;0.38;0.38;;;;;;;;;;5090874;28;20479;-72
2023/12/15 09:26:09;;;;;;;0.22;0.22;;;;;;;;;;5090770;28;20028;-73
2023/12/15 09:28:35;;;;;;;1.17;0.90;;;;;;;;;;5072403;28;20024;-72
2023/12/15 09:31:01;;;;;;;0.20;0.20;;;;;;;;;;5090757;28;20078;-73
2023/12/15 09:33:26;;;;;;;0.10;0.10;;;;;;;;;;5090140;28;20028;-73
2023/12/15 09:35:54;;;;;;;0.20;0.20;;;;;;;;;;5090630;28;20413;-74
2023/12/15 09:38:20;;;;;;;0.20;0.20;;;;;;;;;;5090600;28;20028;-72
2023/12/15 09:40:46;;;;;;;0.20;0.20;;;;;;;;;;5090456;28;20035;-72
2023/12/15 09:43:12;;;;;;;0.20;0.20;;;;;;;;;;5090146;28;20028;-73
2023/12/15 09:45:38;;;;;;;0.20;0.20;;;;;;;;;;5088857;28;20119;-73
2023/12/15 09:48:06;;;;;;;0.20;0.20;;;;;;;;;;5090909;28;20012;-72
2023/12/15 09:50:33;;;;;;;0.20;0.20;;;;;;;;;;5090187;28;20024;-72
2023/12/15 09:52:58;;;;;;;0.20;0.20;;;;;;;;;;5091262;28;20032;-72
2023/12/15 09:55:26;;;;;;;0.20;0.20;;;;;;;;;;5091837;28;20077;-73
2023/12/15 09:57:52;;;;;;;0.20;0.20;;;;;;;;;;5091411;28;20028;-74
2023/12/15 10:00:18;;;;;;;0.30;0.30;;;;;;;;;;5090683;28;20091;-73
2023/12/15 10:02:44;;;;;;;0.20;0.20;;;;;;;;;;5089939;28;20121;-72
2023/12/15 10:05:10;;;;;;;0.22;0.22;;;;;;;;;;5089903;28;20024;-73
2023/12/15 10:07:36;;;;;;;0.30;0.30;;;;;;;;;;5089789;28;20075;-74
2023/12/15 10:10:02;;;;;;;0.20;0.20;;;;;;;;;;5089768;28;20121;-73
2023/12/15 10:12:30;;;;;;;0.47;0.47;;;;;;;;;;5071928;28;20047;-72
2023/12/15 10:14:56;;;;;;;0.20;0.20;;;;;;;;;;5083676;28;20028;-72
2023/12/15 10:17:22;;;;;;;0.22;0.22;;;;;;;;;;5076417;28;20178;-72
2023/12/15 10:19:48;;;;;;;1.85;1.05;;;;;;;;;;5071047;28;20527;-73
2023/12/15 10:22:14;;;;;;;0.20;0.20;;;;;;;;;;5089201;28;20016;-72
2023/12/15 10:24:39;;;;;;;0.20;0.20;;;;;;;;;;5089468;28;20451;-72
2023/12/15 10:27:08;;;;;;;0.20;0.20;;;;;;;;;;5088601;28;20032;-72
2023/12/15 10:29:58;;;;;;;0.20;0.20;;;;;;;;;;5069393;28;20106;-72
2023/12/15 10:32:49;;;;;;;0.20;0.20;;;;;;;;;;5070484;28;20043;-72
2023/12/15 10:35:40;;;;;;;0.43;0.43;;;;;;;;;;5071056;28;20430;-71
2023/12/15 10:38:30;;;;;;;0.28;0.28;;;;;;;;;;5056504;28;20513;-71
2023/12/15 10:41:22;;;;;;;0.35;0.35;;;;;;;;;;5070007;28;20511;-73
2023/12/15 10:43:50;;;;;;;0.30;0.30;;;;;;;;;;5071640;28;20020;-73
2023/12/15 10:46:15;;;;;;;0.20;0.20;;;;;;;;;;5071090;28;20396;-71
2023/12/15 10:48:41;;;;;;;0.20;0.20;;;;;;;;;;5070985;28;20020;-71
2023/12/15 10:51:08;;;;;;;0.20;0.20;;;;;;;;;;5070851;28;20475;-72
2023/12/15 10:53:33;;;;;;;0.40;0.40;;;;;;;;;;5070701;28;20055;-72
2023/12/15 10:56:00;;;;;;;0.30;0.30;;;;;;;;;;5071168;28;20391;-72
2023/12/15 10:58:25;;;;;;;0.20;0.20;;;;;;;;;;5070269;28;20024;-72
2023/12/15 11:00:51;;;;;;;0.47;0.43;;;;;;;;;;5070827;28;20029;-72
2023/12/15 11:03:43;;;;;;;0.40;0.20;;;;;;;;;;5070872;28;20533;-71
